createdAt,value
2019-03-19T00:01:03.656Z,1.23
2019-03-19T00:03:29.901Z,1.30
2019-03-19T00:05:56.148Z,1.40
2019-03-19T00:08:22.394Z,1.37
2019-03-19T00:10:48.621Z,1.60
2019-03-19T00:13:14.874Z,1.43
2019-03-19T00:15:41.112Z,1.23
2019-03-19T00:18:07.349Z,1.23
2019-03-19T00:20:33.576Z,1.30
2019-03-19T00:22:59.813Z,1.10
2019-03-19T00:25:30.438Z,1.13
2019-03-19T00:27:54.205Z,1.40
2019-03-19T00:30:20.435Z,1.30
2019-03-19T00:32:46.684Z,1.40
2019-03-19T00:35:12.925Z,1.20
2019-03-19T00:37:39.163Z,0.93
2019-03-19T00:43:01.845Z,1.13
2019-03-19T00:45:28.071Z,1.40
2019-03-19T00:47:54.296Z,1.37
2019-03-19T00:50:20.537Z,1.07
2019-03-19T00:52:46.777Z,1.57
2019-03-19T00:55:13.240Z,1.70
2019-03-19T00:57:39.471Z,1.40
2019-03-19T01:00:25.476Z,1.40
2019-03-19T01:02:51.744Z,1.50
2019-03-19T01:05:18.084Z,0.90
2019-03-19T01:07:44.320Z,1.63
2019-03-19T01:10:51.860Z,1.30
2019-03-19T01:13:18.105Z,1.23
2019-03-19T01:15:44.360Z,1.30
2019-03-19T01:18:10.593Z,1.30
2019-03-19T01:20:36.826Z,1.10
2019-03-19T01:23:03.053Z,2.10
2019-03-19T01:25:29.316Z,1.10
2019-03-19T01:27:55.550Z,1.27
2019-03-19T01:30:21.789Z,1.40
2019-03-19T01:32:48.010Z,1.20
2019-03-19T01:35:14.266Z,1.17
2019-03-19T01:37:40.498Z,1.10
2019-03-19T01:40:26.498Z,1.00
2019-03-19T01:42:52.733Z,1.00
2019-03-19T01:45:18.981Z,1.13
2019-03-19T01:47:45.226Z,1.20
2019-03-19T01:50:52.780Z,1.47
2019-03-19T01:53:19.031Z,1.10
2019-03-19T01:55:45.329Z,1.30
2019-03-19T01:58:11.569Z,1.03
2019-03-19T02:00:37.795Z,1.40
2019-03-19T02:03:04.054Z,1.10
2019-03-19T02:05:30.291Z,1.20
2019-03-19T02:07:56.525Z,1.20
2019-03-19T02:10:22.773Z,1.00
2019-03-19T02:12:49.001Z,1.47
2019-03-19T02:18:16.156Z,0.90
2019-03-19T02:20:42.403Z,1.20
2019-03-19T02:23:08.645Z,1.10
2019-03-19T02:25:34.892Z,1.47
2019-03-19T02:28:01.117Z,1.40
2019-03-19T02:30:27.347Z,1.10
2019-03-19T02:32:53.589Z,2.10
2019-03-19T02:35:19.824Z,1.30
2019-03-19T02:37:46.069Z,1.33
2019-03-19T02:40:53.625Z,1.13
2019-03-19T02:43:22.640Z,1.30
2019-03-19T02:45:47.986Z,1.17
2019-03-19T02:48:14.228Z,1.20
2019-03-19T02:50:40.456Z,1.23
2019-03-19T02:53:06.700Z,1.03
2019-03-19T02:55:32.935Z,1.43
2019-03-19T02:57:59.206Z,1.20
2019-03-19T03:00:25.439Z,1.30
2019-03-19T03:02:51.680Z,1.50
2019-03-19T03:08:32.050Z,1.30
2019-03-19T03:10:58.268Z,1.33
2019-03-19T03:13:24.513Z,1.20
2019-03-19T03:15:50.754Z,0.80
2019-03-19T03:18:16.994Z,0.93
2019-03-19T03:20:43.226Z,1.47
2019-03-19T03:23:09.472Z,1.20
2019-03-19T03:25:35.715Z,1.10
2019-03-19T03:28:01.946Z,1.43
2019-03-19T03:30:28.205Z,1.03
2019-03-19T03:32:54.421Z,1.30
2019-03-19T03:35:20.654Z,1.27
2019-03-19T03:37:46.886Z,1.30
2019-03-19T03:40:32.878Z,1.17
2019-03-19T03:42:59.109Z,1.27
2019-03-19T03:45:25.353Z,1.17
2019-03-19T03:47:51.572Z,1.40
2019-03-19T03:50:59.121Z,1.50
2019-03-19T03:53:25.351Z,1.57
2019-03-19T03:55:51.620Z,1.70
2019-03-19T03:58:17.862Z,1.30
2019-03-19T04:00:44.101Z,1.70
2019-03-19T04:03:10.326Z,1.30
2019-03-19T04:05:36.576Z,1.47
2019-03-19T04:10:56.547Z,1.50
2019-03-19T04:13:22.777Z,1.30
2019-03-19T04:15:49.000Z,1.50
2019-03-19T04:18:15.258Z,1.10
2019-03-19T04:20:41.512Z,1.47
2019-03-19T04:23:07.749Z,1.40
2019-03-19T04:25:33.970Z,1.17
2019-03-19T04:28:00.206Z,1.30
2019-03-19T04:30:26.453Z,1.20
2019-03-19T04:32:52.697Z,1.30
2019-03-19T04:35:18.988Z,1.30
2019-03-19T04:37:45.216Z,1.00
2019-03-19T04:40:31.225Z,1.57
2019-03-19T04:42:57.464Z,1.60
2019-03-19T04:45:23.744Z,1.43
2019-03-19T04:47:49.971Z,1.17
2019-03-19T04:50:16.224Z,1.50
2019-03-19T04:52:42.762Z,1.50
2019-03-19T04:58:22.408Z,1.20
2019-03-19T05:00:48.643Z,1.70
2019-03-19T05:03:14.915Z,1.30
2019-03-19T05:05:41.156Z,1.40
2019-03-19T05:08:07.397Z,1.30
2019-03-19T05:10:33.626Z,1.37
2019-03-19T05:13:00.875Z,1.30
2019-03-19T05:15:28.030Z,1.23
2019-03-19T05:17:54.318Z,1.30
2019-03-19T05:20:20.496Z,1.40
2019-03-19T05:22:46.734Z,1.07
2019-03-19T05:25:12.964Z,1.30
2019-03-19T05:27:39.213Z,1.20
2019-03-19T05:30:46.784Z,1.17
2019-03-19T05:33:13.026Z,1.33
2019-03-19T05:35:39.299Z,1.33
2019-03-19T05:38:25.302Z,1.10
2019-03-19T05:40:51.575Z,1.40
2019-03-19T05:43:17.811Z,1.10
2019-03-19T05:45:44.058Z,1.23
2019-03-19T05:48:10.325Z,1.37
2019-03-19T05:50:36.549Z,1.40
2019-03-19T05:53:02.802Z,1.20
2019-03-19T05:55:29.039Z,1.40
2019-03-19T05:57:55.303Z,1.10
2019-03-19T06:03:09.168Z,1.20
2019-03-19T06:05:35.383Z,1.10
2019-03-19T06:08:01.620Z,1.40
2019-03-19T06:10:27.862Z,1.20
2019-03-19T06:12:54.113Z,0.90
2019-03-19T06:15:20.349Z,1.20
2019-03-19T06:17:46.594Z,1.63
2019-03-19T06:20:54.144Z,1.10
2019-03-19T06:23:20.402Z,1.30
2019-03-19T06:25:46.629Z,1.07
2019-03-19T06:28:12.858Z,1.07
2019-03-19T06:30:39.125Z,1.17
2019-03-19T06:33:05.372Z,1.00
2019-03-19T06:35:31.623Z,0.87
2019-03-19T06:37:57.865Z,1.20
2019-03-19T06:40:24.111Z,0.80
2019-03-19T06:42:50.348Z,1.23
2019-03-19T06:45:57.895Z,0.90
2019-03-19T06:48:24.149Z,1.27
2019-03-19T06:50:50.387Z,0.83
2019-03-19T06:53:16.629Z,1.03
2019-03-19T06:56:02.801Z,0.90
2019-03-19T06:58:29.507Z,0.80
2019-03-19T07:00:55.764Z,0.90
2019-03-19T07:03:22.015Z,0.97
2019-03-19T07:05:48.259Z,1.10
2019-03-19T07:08:14.494Z,1.20
2019-03-19T07:10:40.736Z,0.90
2019-03-19T07:13:06.965Z,1.00
2019-03-19T07:15:33.208Z,0.77
2019-03-19T07:17:59.436Z,1.03
2019-03-19T07:21:06.984Z,0.83
2019-03-19T07:23:33.230Z,0.80
2019-03-19T07:25:59.480Z,0.90
2019-03-19T07:28:25.724Z,0.93
2019-03-19T07:30:51.958Z,1.10
2019-03-19T07:33:18.176Z,0.90
2019-03-19T07:35:44.411Z,1.40
2019-03-19T07:38:10.652Z,1.10
2019-03-19T07:40:36.902Z,1.30
2019-03-19T07:43:03.130Z,0.70
2019-03-19T07:45:29.383Z,1.03
2019-03-19T07:47:55.605Z,0.80
2019-03-19T07:51:03.159Z,0.97
2019-03-19T07:53:29.391Z,1.00
2019-03-19T07:55:55.645Z,0.73
2019-03-19T07:58:32.751Z,1.00
2019-03-19T08:00:50.027Z,0.80
2019-03-19T08:03:16.687Z,1.17
2019-03-19T08:05:44.386Z,0.80
2019-03-19T08:08:10.619Z,0.90
2019-03-19T08:10:36.855Z,1.07
2019-03-19T08:13:03.088Z,0.70
2019-03-19T08:15:29.312Z,0.83
2019-03-19T08:17:55.553Z,1.00
2019-03-19T08:20:21.778Z,1.00
2019-03-19T08:22:48.034Z,0.57
2019-03-19T08:28:28.189Z,1.00
2019-03-19T08:30:54.421Z,1.00
2019-03-19T08:33:20.659Z,0.73
2019-03-19T08:35:46.892Z,1.03
2019-03-19T08:38:13.143Z,0.90
2019-03-19T08:40:39.376Z,1.00
2019-03-19T08:43:05.623Z,0.70
2019-03-19T08:45:31.856Z,1.20
2019-03-19T08:47:58.097Z,1.03
2019-03-19T08:50:24.436Z,1.10
2019-03-19T08:52:50.685Z,0.90
2019-03-19T08:55:17.020Z,0.73
2019-03-19T08:57:43.265Z,0.90
2019-03-19T09:03:10.460Z,0.97
2019-03-19T09:05:36.696Z,0.87
2019-03-19T09:08:02.944Z,0.90
2019-03-19T09:10:29.184Z,0.90
2019-03-19T09:12:55.430Z,1.10
2019-03-19T09:16:02.970Z,1.00
2019-03-19T09:18:29.249Z,0.90
2019-03-19T09:20:55.492Z,1.13
2019-03-19T09:23:21.737Z,1.10
2019-03-19T09:25:47.979Z,0.93
2019-03-19T09:28:14.243Z,0.87
2019-03-19T09:30:40.494Z,1.13
2019-03-19T09:33:06.773Z,1.13
2019-03-19T09:35:33.006Z,1.10
2019-03-19T09:37:59.396Z,1.13
2019-03-19T09:40:25.691Z,0.87
2019-03-19T09:42:51.935Z,0.90
2019-03-19T09:45:18.283Z,1.00
2019-03-19T09:50:58.101Z,1.27
2019-03-19T09:53:24.347Z,1.03
2019-03-19T09:55:50.593Z,1.20
2019-03-19T09:58:16.846Z,1.10
2019-03-19T10:00:43.150Z,1.30
2019-03-19T10:03:09.432Z,1.00
2019-03-19T10:05:35.681Z,1.30
2019-03-19T10:08:01.917Z,1.07
2019-03-19T10:10:28.212Z,1.50
2019-03-19T10:12:54.513Z,1.50
2019-03-19T10:15:20.796Z,1.40
2019-03-19T10:17:47.035Z,1.33
2019-03-19T10:23:07.404Z,1.30
2019-03-19T10:25:33.674Z,1.30
2019-03-19T10:27:59.916Z,1.40
2019-03-19T10:30:26.163Z,1.37
2019-03-19T10:32:52.463Z,1.30
2019-03-19T10:35:18.751Z,1.30
2019-03-19T10:37:44.981Z,1.60
2019-03-19T10:40:52.540Z,1.80
2019-03-19T10:43:18.791Z,1.47
2019-03-19T10:45:45.046Z,1.90
2019-03-19T10:48:11.291Z,1.50
2019-03-19T10:50:37.545Z,1.53
2019-03-19T10:53:03.873Z,1.50
2019-03-19T10:55:30.127Z,1.53
2019-03-19T10:57:56.388Z,1.77
2019-03-19T11:01:03.950Z,2.10
2019-03-19T11:03:30.195Z,1.67
2019-03-19T11:05:56.465Z,2.07
2019-03-19T11:08:22.687Z,2.13
2019-03-19T11:10:48.937Z,2.10
2019-03-19T11:13:15.198Z,1.67
2019-03-19T11:15:41.441Z,1.90
2019-03-19T11:18:07.689Z,2.00
2019-03-19T11:20:33.921Z,2.00
2019-03-19T11:23:00.172Z,2.47
2019-03-19T11:25:54.164Z,2.23
2019-03-19T11:28:14.329Z,2.27
2019-03-19T11:30:40.571Z,2.20
2019-03-19T11:33:06.831Z,2.17
2019-03-19T11:35:33.070Z,2.27
2019-03-19T11:37:59.316Z,2.40
2019-03-19T11:40:26.239Z,2.80
2019-03-19T11:43:35.011Z,2.13
2019-03-19T11:46:01.258Z,2.27
2019-03-19T11:48:27.499Z,2.87
2019-03-19T11:50:53.732Z,2.83
2019-03-19T11:53:19.985Z,2.60
2019-03-19T11:55:46.229Z,2.70
2019-03-19T11:58:12.472Z,2.50
2019-03-19T12:00:58.478Z,2.20
2019-03-19T12:03:24.729Z,2.87
2019-03-19T12:05:50.968Z,2.90
2019-03-19T12:08:17.225Z,2.80
2019-03-19T12:10:43.465Z,2.97
2019-03-19T12:13:09.712Z,3.60
2019-03-19T12:15:35.952Z,2.77
2019-03-19T12:18:02.190Z,3.20
2019-03-19T12:20:28.439Z,3.13
2019-03-19T12:22:54.665Z,2.90
2019-03-19T12:25:20.905Z,3.40
2019-03-19T12:27:47.137Z,3.33
2019-03-19T12:30:54.999Z,3.20
2019-03-19T12:33:21.318Z,3.37
2019-03-19T12:35:47.563Z,3.30
2019-03-19T12:38:13.789Z,3.77
2019-03-19T12:40:40.050Z,3.80
2019-03-19T12:43:06.287Z,3.63
2019-03-19T12:45:32.535Z,3.80
2019-03-19T12:47:58.769Z,3.67
2019-03-19T12:51:06.308Z,3.50
2019-03-19T12:53:32.549Z,3.60
2019-03-19T12:55:58.814Z,3.00
2019-03-19T12:58:25.018Z,4.10
2019-03-19T13:00:51.283Z,3.87
2019-03-19T13:03:17.511Z,4.60
2019-03-19T13:05:43.817Z,4.20
2019-03-19T13:08:10.069Z,3.70
2019-03-19T13:10:36.303Z,4.30
2019-03-19T13:13:02.537Z,4.20
2019-03-19T13:15:28.772Z,4.03
2019-03-19T13:17:55.008Z,4.77
2019-03-19T13:21:02.549Z,4.40
2019-03-19T13:23:28.800Z,3.63
2019-03-19T13:25:56.786Z,4.10
2019-03-19T13:28:23.183Z,4.13
2019-03-19T13:30:49.463Z,3.90
2019-03-19T13:33:15.667Z,4.23
2019-03-19T13:35:41.914Z,3.77
2019-03-19T13:38:08.160Z,3.83
2019-03-19T13:40:34.402Z,4.20
2019-03-19T13:43:00.650Z,3.67
2019-03-19T13:45:26.883Z,4.07
2019-03-19T13:47:53.120Z,3.57
2019-03-19T13:53:26.909Z,3.43
2019-03-19T13:55:53.140Z,3.27
2019-03-19T13:59:00.691Z,3.17
2019-03-19T14:01:26.957Z,3.07
2019-03-19T14:03:53.193Z,3.07
2019-03-19T14:06:19.433Z,2.67
2019-03-19T14:08:45.656Z,2.70
2019-03-19T14:11:11.890Z,2.80
2019-03-19T14:13:38.132Z,2.10
2019-03-19T14:16:04.355Z,3.03
2019-03-19T14:18:30.599Z,2.20
2019-03-19T14:20:56.823Z,2.93
2019-03-19T14:23:23.064Z,2.80
2019-03-19T14:25:49.295Z,2.07
2019-03-19T14:28:15.543Z,2.20
2019-03-19T14:30:41.775Z,2.40
2019-03-19T14:33:08.019Z,1.60
2019-03-19T14:35:37.489Z,2.20
2019-03-19T14:40:36.877Z,1.77
2019-03-19T14:43:03.238Z,1.83
2019-03-19T14:45:29.479Z,1.97
2019-03-19T14:47:55.721Z,1.60
2019-03-19T14:50:41.717Z,2.30
2019-03-19T14:53:07.968Z,1.90
2019-03-19T14:55:34.201Z,2.23
2019-03-19T14:58:00.449Z,1.63
2019-03-19T15:00:26.700Z,2.10
2019-03-19T15:02:52.930Z,1.90
2019-03-19T15:05:19.177Z,2.90
2019-03-19T15:07:45.403Z,2.20
2019-03-19T15:10:31.394Z,2.27
2019-03-19T15:15:58.757Z,2.00
2019-03-19T15:18:25.004Z,1.53
2019-03-19T15:20:53.006Z,2.03
2019-03-19T15:23:19.390Z,1.87
2019-03-19T15:25:45.633Z,1.90
2019-03-19T15:28:11.863Z,1.87
2019-03-19T15:30:38.119Z,1.70
2019-03-19T15:33:04.351Z,1.50
2019-03-19T15:35:30.642Z,2.10
2019-03-19T15:37:56.853Z,1.80
2019-03-19T15:40:23.096Z,1.90
2019-03-19T15:42:49.332Z,2.00
2019-03-19T15:45:56.877Z,1.70
2019-03-19T15:48:23.116Z,1.60
2019-03-19T15:50:49.373Z,1.90
2019-03-19T15:53:15.599Z,1.80
2019-03-19T15:55:41.856Z,1.83
2019-03-19T15:58:08.090Z,1.80
2019-03-19T16:00:34.351Z,2.00
2019-03-19T16:03:00.596Z,1.90
2019-03-19T16:05:26.834Z,1.80
2019-03-19T16:07:53.069Z,1.90
2019-03-19T16:10:19.314Z,1.97
2019-03-19T16:12:45.540Z,1.70
2019-03-19T16:15:31.537Z,1.70
2019-03-19T16:17:57.773Z,1.53
2019-03-19T16:20:24.033Z,2.03
2019-03-19T16:22:50.267Z,1.60
2019-03-19T16:25:16.510Z,2.10
2019-03-19T16:27:42.745Z,2.23
2019-03-19T16:30:50.335Z,2.00
2019-03-19T16:33:17.523Z,2.03
2019-03-19T16:35:43.776Z,1.97
2019-03-19T16:38:10.009Z,2.03
2019-03-19T16:40:36.256Z,1.50
2019-03-19T16:43:02.587Z,1.70
2019-03-19T16:45:28.817Z,2.07
2019-03-19T16:47:55.063Z,2.20
2019-03-19T16:51:02.639Z,2.20
2019-03-19T16:53:28.893Z,2.20
2019-03-19T16:55:55.128Z,2.30
2019-03-19T16:58:21.364Z,1.90
2019-03-19T17:00:47.612Z,2.20
2019-03-19T17:03:13.864Z,2.03
2019-03-19T17:05:40.093Z,2.47
2019-03-19T17:08:06.328Z,2.10
2019-03-19T17:10:32.563Z,2.30
2019-03-19T17:12:58.806Z,2.00
2019-03-19T17:15:25.029Z,2.20
2019-03-19T17:17:51.271Z,2.13
2019-03-19T17:20:39.073Z,2.00
2019-03-19T17:23:05.351Z,2.00
2019-03-19T17:25:31.679Z,2.20
2019-03-19T17:27:57.918Z,2.17
2019-03-19T17:31:05.467Z,2.17
2019-03-19T17:33:31.723Z,2.10
2019-03-19T17:35:57.962Z,2.23
2019-03-19T17:38:24.243Z,2.37
2019-03-19T17:40:50.477Z,1.93
2019-03-19T17:43:16.713Z,2.13
2019-03-19T17:45:42.948Z,2.00
2019-03-19T17:48:16.235Z,2.80
2019-03-19T17:50:57.088Z,2.40
2019-03-19T17:53:23.339Z,2.27
2019-03-19T17:55:49.568Z,2.27
2019-03-19T17:58:15.810Z,2.27
2019-03-19T18:03:29.681Z,2.70
2019-03-19T18:05:55.910Z,2.43
2019-03-19T18:08:22.169Z,2.33
2019-03-19T18:10:48.393Z,2.37
2019-03-19T18:13:14.640Z,2.50
2019-03-19T18:15:40.871Z,2.50
2019-03-19T18:18:07.097Z,2.60
2019-03-19T18:20:33.337Z,2.33
2019-03-19T18:22:59.567Z,2.30
2019-03-19T18:25:25.835Z,2.63
2019-03-19T18:27:52.061Z,2.57
2019-03-19T18:30:59.621Z,2.33
2019-03-19T18:33:25.880Z,2.00
2019-03-19T18:35:55.128Z,2.50
2019-03-19T18:38:20.297Z,3.93
2019-03-19T18:40:46.558Z,2.87
2019-03-19T18:43:12.833Z,2.80
2019-03-19T18:45:39.077Z,2.30
2019-03-19T18:48:05.314Z,2.60
2019-03-19T18:50:31.569Z,2.07
2019-03-19T18:52:57.813Z,2.40
2019-03-19T18:55:24.054Z,2.20
2019-03-19T18:57:50.301Z,2.97
2019-03-19T19:00:57.864Z,2.97
2019-03-19T19:03:24.096Z,2.60
2019-03-19T19:05:50.346Z,2.80
2019-03-19T19:08:16.609Z,3.07
2019-03-19T19:10:42.864Z,2.73
2019-03-19T19:13:09.084Z,2.77
2019-03-19T19:15:35.329Z,3.00
2019-03-19T19:18:01.565Z,3.07
2019-03-19T19:20:27.821Z,2.50
2019-03-19T19:22:54.069Z,2.87
2019-03-19T19:26:01.627Z,2.50
2019-03-19T19:28:27.867Z,2.70
2019-03-19T19:30:54.126Z,2.70
2019-03-19T19:33:20.382Z,2.43
2019-03-19T19:35:46.730Z,2.83
2019-03-19T19:38:12.967Z,3.07
2019-03-19T19:40:39.217Z,3.23
2019-03-19T19:43:05.452Z,3.10
2019-03-19T19:45:31.682Z,2.60
2019-03-19T19:47:57.923Z,2.70
2019-03-19T19:50:24.151Z,2.97
2019-03-19T19:52:50.391Z,3.17
2019-03-19T19:58:17.770Z,3.20
2019-03-19T20:00:44.105Z,2.40
2019-03-19T20:03:12.517Z,2.47
2019-03-19T20:05:38.504Z,2.37
2019-03-19T20:08:04.761Z,2.53
2019-03-19T20:10:31.030Z,2.40
2019-03-19T20:12:57.259Z,2.67
2019-03-19T20:15:23.500Z,2.30
2019-03-19T20:17:49.747Z,2.37
2019-03-19T20:20:57.285Z,1.93
2019-03-19T20:23:23.544Z,2.07
2019-03-19T20:25:49.782Z,2.37
2019-03-19T20:28:16.037Z,2.00
2019-03-19T20:30:42.284Z,2.27
2019-03-19T20:33:08.532Z,2.40
2019-03-19T20:35:34.776Z,2.10
2019-03-19T20:38:01.032Z,2.00
2019-03-19T20:40:27.292Z,2.70
2019-03-19T20:42:53.542Z,1.97
2019-03-19T20:45:39.788Z,1.87
2019-03-19T20:48:06.050Z,2.00
2019-03-19T20:50:52.346Z,2.07
2019-03-19T20:53:18.608Z,2.57
2019-03-19T20:55:44.868Z,2.50
2019-03-19T20:58:11.125Z,2.43
2019-03-19T21:00:37.394Z,2.30
2019-03-19T21:03:03.639Z,1.90
2019-03-19T21:05:29.877Z,2.37
2019-03-19T21:07:56.129Z,2.17
2019-03-19T21:13:35.897Z,2.30
2019-03-19T21:16:02.144Z,1.97
2019-03-19T21:18:28.422Z,1.87
2019-03-19T21:20:54.646Z,2.60
2019-03-19T21:23:20.892Z,2.43
2019-03-19T21:25:47.145Z,2.07
2019-03-19T21:28:14.568Z,2.00
2019-03-19T21:30:41.951Z,1.83
2019-03-19T21:33:08.192Z,1.80
2019-03-19T21:35:34.451Z,2.60
2019-03-19T21:38:00.702Z,2.23
2019-03-19T21:40:26.957Z,2.70
2019-03-19T21:42:53.195Z,2.60
2019-03-19T21:45:40.998Z,2.17
2019-03-19T21:48:07.235Z,2.27
2019-03-19T21:50:33.482Z,1.87
2019-03-19T21:52:59.729Z,2.90
2019-03-19T21:55:25.980Z,2.37
2019-03-19T21:57:52.219Z,2.10
2019-03-19T22:00:38.237Z,2.67
2019-03-19T22:03:04.486Z,2.17
2019-03-19T22:05:30.740Z,2.30
2019-03-19T22:07:56.993Z,2.40
2019-03-19T22:10:23.242Z,1.90
2019-03-19T22:12:49.863Z,2.77
2019-03-19T22:15:37.387Z,2.53
2019-03-19T22:18:23.381Z,2.07
2019-03-19T22:20:49.639Z,1.87
2019-03-19T22:23:15.869Z,2.43
2019-03-19T22:25:42.132Z,1.90
2019-03-19T22:28:08.372Z,1.90
2019-03-19T22:30:34.625Z,2.30
2019-03-19T22:33:00.864Z,2.23
2019-03-19T22:35:27.115Z,2.47
2019-03-19T22:37:53.388Z,2.40
2019-03-19T22:40:19.598Z,2.13
2019-03-19T22:42:45.854Z,2.57
2019-03-19T22:48:12.591Z,2.50
2019-03-19T22:50:38.830Z,2.30
2019-03-19T22:53:05.084Z,3.03
2019-03-19T22:55:31.316Z,2.23
2019-03-19T22:57:57.572Z,2.47
2019-03-19T23:00:43.574Z,2.27
2019-03-19T23:03:10.028Z,2.00
2019-03-19T23:05:36.266Z,2.77
2019-03-19T23:10:56.505Z,2.40
2019-03-19T23:13:22.752Z,2.40
2019-03-19T23:15:48.988Z,2.40
2019-03-19T23:20:49.222Z,2.60
2019-03-19T23:23:15.467Z,1.90
2019-03-19T23:25:41.699Z,2.30
2019-03-19T23:28:07.948Z,2.43
2019-03-19T23:30:34.180Z,2.03
2019-03-19T23:33:00.443Z,2.30
2019-03-19T23:35:26.687Z,2.27
2019-03-19T23:37:52.934Z,2.70
2019-03-19T23:43:32.697Z,2.30
2019-03-19T23:45:58.932Z,2.27
2019-03-19T23:48:25.183Z,2.60
2019-03-19T23:50:51.404Z,2.77
2019-03-19T23:53:17.643Z,2.37
2019-03-19T23:55:43.910Z,2.70
2019-03-19T23:58:10.160Z,2.57
